Time;durP1;ratioP1;P1;durP2;ratioP2;P2;SDS_P1;SDS_P2;PMS_P1;PMS_P2;Temp;Humidity;BMP_temperature;BMP_pressure;BME280_temperature;BME280_humidity;BME280_pressure;Samples;Min_cycle;Max_cycle;Signal;HPM_P1;HPM_P2
2020/12/29 00:01:15;;;;;;;12.15;2.65;;;8.30;99.90;;;;;;5065338;28;20051;-58
2020/12/29 00:04:22;;;;;;;20.15;2.80;;;8.20;99.90;;;;;;5050590;28;20056;-60
2020/12/29 00:07:26;;;;;;;18.73;4.95;;;8.10;99.90;;;;;;5049446;28;20056;-59
2020/12/29 00:10:29;;;;;;;20.88;4.13;;;8.10;99.90;;;;;;5049701;28;20032;-60
2020/12/29 00:13:33;;;;;;;19.83;2.70;;;8.10;99.90;;;;;;5049470;28;20037;-61
2020/12/29 00:16:37;;;;;;;21.90;3.20;;;8.10;99.90;;;;;;5061508;28;20036;-57
2020/12/29 00:19:41;;;;;;;31.33;3.55;;;8.00;99.90;;;;;;5049510;28;20411;-59
2020/12/29 00:22:45;;;;;;;23.67;3.20;;;7.90;99.90;;;;;;5062631;28;20059;-57
2020/12/29 00:25:51;;;;;;;11.90;2.33;;;7.90;99.90;;;;;;5048950;28;20052;-60
2020/12/29 00:28:56;;;;;;;16.60;3.50;;;7.90;99.90;;;;;;5049081;28;20047;-60
2020/12/29 00:32:03;;;;;;;29.73;4.10;;;7.90;99.90;;;;;;5048894;28;20040;-60
2020/12/29 00:35:07;;;;;;;17.20;3.10;;;7.90;99.90;;;;;;5062757;28;20044;-57
2020/12/29 00:38:11;;;;;;;16.85;3.33;;;7.80;99.90;;;;;;5049096;28;20048;-57
2020/12/29 00:41:15;;;;;;;17.65;3.53;;;7.90;99.90;;;;;;5048854;28;20040;-57
2020/12/29 00:44:19;;;;;;;14.05;2.65;;;8.00;99.90;;;;;;5048632;28;20048;-55
2020/12/29 00:47:25;;;;;;;31.73;3.78;;;8.00;99.90;;;;;;5048983;28;20044;-56
2020/12/29 00:50:29;;;;;;;23.20;3.05;;;8.00;99.90;;;;;;5064791;28;20048;-57
2020/12/29 00:53:34;;;;;;;14.73;2.95;;;8.00;99.90;;;;;;5064255;28;20426;-58
2020/12/29 00:56:43;;;;;;;17.77;3.58;;;8.10;99.90;;;;;;5059609;28;20048;-56
2020/12/29 00:59:47;;;;;;;18.75;3.05;;;8.10;99.90;;;;;;5059558;28;20048;-57
2020/12/29 01:02:52;;;;;;;24.08;3.03;;;8.10;99.90;;;;;;5076828;28;20040;-58
2020/12/29 01:05:58;;;;;;;26.50;4.40;;;8.10;99.90;;;;;;5063015;28;20044;-58
2020/12/29 01:09:02;;;;;;;21.20;2.47;;;8.10;99.90;;;;;;5068724;28;20044;-57
2020/12/29 01:12:07;;;;;;;13.82;2.20;;;8.20;99.90;;;;;;5068988;28;20056;-57
2020/12/29 01:15:12;;;;;;;14.75;2.60;;;8.20;99.90;;;;;;5076015;28;20048;-58
2020/12/29 01:18:37;;;;;;;21.95;2.40;;;8.20;99.90;;;;;;5054146;28;20406;-58
2020/12/29 01:21:42;;;;;;;18.17;3.20;;;8.10;99.90;;;;;;5052220;28;20044;-57
2020/12/29 01:24:46;;;;;;;19.98;3.15;;;8.20;99.90;;;;;;5068195;28;20067;-60
2020/12/29 01:27:51;;;;;;;19.67;3.75;;;8.20;99.90;;;;;;5058909;28;20079;-60
2020/12/29 01:30:55;;;;;;;25.33;4.55;;;8.20;99.90;;;;;;5059593;28;20048;-58
2020/12/29 01:34:00;;;;;;;20.00;2.50;;;8.20;99.90;;;;;;5065957;28;20510;-60
2020/12/29 01:37:05;;;;;;;12.57;1.95;;;8.30;99.90;;;;;;5061944;28;20044;-61
2020/12/29 01:40:11;;;;;;;18.65;2.90;;;8.30;99.90;;;;;;5061098;28;20071;-57
2020/12/29 01:43:15;;;;;;;16.63;2.20;;;8.30;99.90;;;;;;5052236;28;20048;-58
2020/12/29 01:46:19;;;;;;;12.60;1.58;;;8.30;99.90;;;;;;5051786;28;20415;-57
2020/12/29 01:49:23;;;;;;;22.30;2.50;;;8.30;99.90;;;;;;5052151;28;20514;-57
2020/12/29 01:52:28;;;;;;;13.55;2.25;;;8.30;99.90;;;;;;5051972;28;20040;-58
2020/12/29 01:55:33;;;;;;;10.52;2.50;;;8.30;99.90;;;;;;5051821;28;20048;-56
2020/12/29 01:58:38;;;;;;;14.18;1.80;;;8.30;99.90;;;;;;5060954;28;20052;-59
2020/12/29 02:01:44;;;;;;;12.60;2.28;;;8.20;99.90;;;;;;5057730;28;20510;-57
2020/12/29 02:04:48;;;;;;;10.95;1.58;;;8.10;99.90;;;;;;5052115;28;20128;-57
2020/12/29 02:07:53;;;;;;;12.77;2.53;;;8.00;99.90;;;;;;5051472;28;20052;-56
2020/12/29 02:10:59;;;;;;;14.35;2.95;;;7.90;99.90;;;;;;5051287;28;20048;-56
2020/12/29 02:14:06;;;;;;;12.18;2.28;;;7.90;99.90;;;;;;5051129;28;20116;-58
2020/12/29 02:17:10;;;;;;;17.02;2.13;;;7.80;99.90;;;;;;5051143;28;20510;-54
2020/12/29 02:20:14;;;;;;;14.95;2.40;;;7.80;99.90;;;;;;5051245;28;20065;-58
2020/12/29 02:23:18;;;;;;;13.95;2.47;;;7.90;99.90;;;;;;5051498;28;20048;-59
2020/12/29 02:26:28;;;;;;;26.35;2.10;;;7.90;99.90;;;;;;5050993;28;20048;-59
2020/12/29 02:29:33;;;;;;;12.15;1.73;;;8.00;99.90;;;;;;5051246;28;20044;-57
2020/12/29 02:32:37;;;;;;;15.43;1.73;;;8.00;99.90;;;;;;5051165;28;20530;-58
2020/12/29 02:35:41;;;;;;;10.48;1.70;;;8.00;99.90;;;;;;5051129;28;20044;-61
2020/12/29 02:38:45;;;;;;;12.77;1.70;;;8.00;99.90;;;;;;5051103;28;20036;-64
2020/12/29 02:41:50;;;;;;;13.35;1.63;;;8.00;99.90;;;;;;5050899;28;20072;-59
2020/12/29 02:44:54;;;;;;;9.45;1.58;;;8.10;99.90;;;;;;5051164;28;20048;-60
2020/12/29 02:47:58;;;;;;;11.05;1.75;;;8.00;99.90;;;;;;5050612;28;20041;-56
2020/12/29 02:51:02;;;;;;;12.52;1.70;;;8.10;99.90;;;;;;5058185;28;20036;-59
2020/12/29 02:54:07;;;;;;;10.95;2.67;;;8.00;99.90;;;;;;5052470;28;20036;-58
2020/12/29 02:57:11;;;;;;;9.02;1.63;;;8.10;99.90;;;;;;5050643;28;20044;-61
2020/12/29 03:00:15;;;;;;;7.30;1.80;;;8.00;99.90;;;;;;5050900;28;20041;-56
2020/12/29 03:03:21;;;;;;;13.02;1.63;;;8.00;99.90;;;;;;5050987;28;20494;-58
2020/12/29 03:06:26;;;;;;;9.68;1.15;;;7.90;99.90;;;;;;5050435;28;20048;-56
2020/12/29 03:09:30;;;;;;;15.52;2.58;;;8.00;99.90;;;;;;5049881;28;20044;-59
2020/12/29 03:12:39;;;;;;;12.05;3.33;;;8.00;99.90;;;;;;5049548;28;20526;-55
2020/12/29 03:15:43;;;;;;;10.13;1.98;;;8.00;99.90;;;;;;5061640;28;20426;-60
2020/12/29 03:18:47;;;;;;;18.73;1.67;;;8.20;99.90;;;;;;5062911;28;20399;-58
2020/12/29 03:21:51;;;;;;;8.88;1.38;;;8.20;99.90;;;;;;5050568;28;20040;-57
2020/12/29 03:24:56;;;;;;;12.93;1.65;;;8.20;99.90;;;;;;5051045;28;20053;-59
2020/12/29 03:28:00;;;;;;;11.75;1.60;;;8.00;99.90;;;;;;5050183;28;20048;-59
2020/12/29 03:31:04;;;;;;;12.80;1.88;;;8.20;99.90;;;;;;5059188;28;20048;-59
2020/12/29 03:34:09;;;;;;;6.82;1.27;;;8.20;99.90;;;;;;5050878;28;20422;-58
2020/12/29 03:37:14;;;;;;;13.18;1.92;;;8.30;99.90;;;;;;5049855;28;20040;-58
2020/12/29 03:40:18;;;;;;;6.88;1.15;;;8.50;99.90;;;;;;5050348;28;20048;-58
2020/12/29 03:43:22;;;;;;;10.55;1.45;;;8.40;99.90;;;;;;5049996;28;20041;-60
2020/12/29 03:46:27;;;;;;;7.70;1.98;;;8.30;99.90;;;;;;5049914;28;20040;-57
2020/12/29 03:49:31;;;;;;;8.35;1.50;;;8.00;99.90;;;;;;5061043;28;20049;-57
2020/12/29 03:52:35;;;;;;;12.77;2.65;;;7.80;99.90;;;;;;5050386;28;20491;-55
2020/12/29 03:55:39;;;;;;;11.07;1.33;;;7.90;99.90;;;;;;5050313;28;20048;-57
2020/12/29 03:58:43;;;;;;;7.68;1.60;;;8.00;99.90;;;;;;5049564;28;20063;-58
2020/12/29 04:01:47;;;;;;;16.33;1.92;;;8.00;99.90;;;;;;5056842;28;20036;-57
2020/12/29 04:04:52;;;;;;;8.35;1.50;;;8.20;99.90;;;;;;5061012;28;20063;-60
2020/12/29 04:07:56;;;;;;;16.50;1.90;;;8.30;99.90;;;;;;5049695;28;20041;-56
2020/12/29 04:11:00;;;;;;;12.50;1.65;;;8.30;99.90;;;;;;5049715;28;20040;-58
2020/12/29 04:14:05;;;;;;;15.88;1.83;;;8.20;99.90;;;;;;5049716;28;20060;-60
2020/12/29 04:17:09;;;;;;;17.10;1.92;;;8.20;99.90;;;;;;5049553;28;20063;-59
2020/12/29 04:20:13;;;;;;;12.63;2.00;;;8.20;99.90;;;;;;5049566;28;20048;-57
2020/12/29 04:23:18;;;;;;;14.23;2.05;;;8.20;99.90;;;;;;5049777;28;20068;-58
2020/12/29 04:26:22;;;;;;;11.35;2.42;;;8.10;99.90;;;;;;5049599;28;20522;-57
2020/12/29 04:29:26;;;;;;;13.75;2.85;;;8.10;99.90;;;;;;5049454;28;20442;-57
2020/12/29 04:32:31;;;;;;;9.80;2.08;;;8.10;99.90;;;;;;5049692;28;20072;-58
2020/12/29 04:35:35;;;;;;;16.75;2.50;;;8.20;99.90;;;;;;5049340;28;20497;-60
2020/12/29 04:38:39;;;;;;;13.68;2.15;;;8.30;99.90;;;;;;5049322;28;20052;-58
2020/12/29 04:41:44;;;;;;;17.45;2.22;;;8.20;99.90;;;;;;5049179;28;20044;-60
2020/12/29 04:44:48;;;;;;;11.07;1.60;;;8.30;99.90;;;;;;5049514;28;20051;-59
2020/12/29 04:47:54;;;;;;;12.82;1.85;;;8.30;99.90;;;;;;5048956;28;20529;-60
2020/12/29 04:51:07;;;;;;;16.15;2.47;;;8.20;99.90;;;;;;5055792;28;20043;-59
2020/12/29 04:54:17;;;;;;;22.38;2.35;;;8.20;99.90;;;;;;5050016;28;20044;-58
2020/12/29 04:57:25;;;;;;;10.45;1.98;;;8.30;99.90;;;;;;5048479;28;20043;-58
2020/12/29 05:00:29;;;;;;;27.63;3.33;;;8.40;99.90;;;;;;5048658;28;20435;-59
2020/12/29 05:03:45;;;;;;;19.17;2.70;;;8.40;99.90;;;;;;5049076;28;20395;-59
2020/12/29 05:06:50;;;;;;;18.20;2.83;;;8.50;99.90;;;;;;5048961;28;20044;-54
2020/12/29 05:10:03;;;;;;;20.27;2.75;;;8.40;99.90;;;;;;5048953;28;20056;-57
2020/12/29 05:13:09;;;;;;;20.55;3.63;;;8.40;99.90;;;;;;5048560;28;20522;-57
2020/12/29 05:16:14;;;;;;;20.00;2.88;;;8.50;99.90;;;;;;5062798;28;20414;-58
2020/12/29 05:19:20;;;;;;;25.88;3.90;;;8.50;99.90;;;;;;5048599;28;20056;-58
2020/12/29 05:22:25;;;;;;;23.05;2.50;;;8.60;99.90;;;;;;5058914;28;20055;-57
2020/12/29 05:25:28;;;;;;;23.90;3.85;;;8.60;99.90;;;;;;5048762;28;20522;-60
2020/12/29 05:28:33;;;;;;;20.17;3.25;;;8.60;99.90;;;;;;5048213;28;20048;-60
2020/12/29 05:31:39;;;;;;;20.35;2.85;;;8.70;99.90;;;;;;5050786;28;20052;-60
2020/12/29 05:34:45;;;;;;;17.20;2.60;;;8.70;99.90;;;;;;5054182;28;20052;-61
2020/12/29 05:37:52;;;;;;;21.17;2.67;;;8.80;99.90;;;;;;5048436;28;20055;-58
2020/12/29 05:40:56;;;;;;;22.30;3.20;;;8.90;99.90;;;;;;5048876;28;20407;-59
2020/12/29 05:44:02;;;;;;;22.55;2.78;;;8.80;99.90;;;;;;5048425;28;20044;-58
2020/12/29 05:47:12;;;;;;;19.48;2.95;;;8.90;99.90;;;;;;5052480;28;20621;-57
2020/12/29 05:50:18;;;;;;;21.55;2.33;;;8.90;99.90;;;;;;5059712;28;20057;-60
2020/12/29 05:53:23;;;;;;;18.05;2.67;;;8.90;99.90;;;;;;5064359;28;20039;-62
2020/12/29 05:56:30;;;;;;;23.45;2.65;;;8.90;99.90;;;;;;5059700;28;20044;-57
2020/12/29 05:59:35;;;;;;;26.80;4.80;;;8.80;99.90;;;;;;5056460;28;20043;-60
2020/12/29 06:02:48;;;;;;;18.63;2.88;;;8.80;99.90;;;;;;5060375;28;20048;-58
2020/12/29 06:05:55;;;;;;;26.77;4.10;;;8.80;99.90;;;;;;5060757;28;20052;-59
2020/12/29 06:09:04;;;;;;;22.35;3.22;;;8.70;99.90;;;;;;5057801;28;20410;-61
2020/12/29 06:12:10;;;;;;;15.77;2.65;;;8.70;99.90;;;;;;5057506;28;20105;-60
2020/12/29 06:15:26;;;;;;;30.35;3.67;;;8.70;99.90;;;;;;5055024;28;20048;-60
2020/12/29 06:18:46;;;;;;;19.92;3.92;;;8.60;99.90;;;;;;5052958;28;20402;-59
2020/12/29 06:22:12;;;;;;;16.00;2.65;;;8.40;99.90;;;;;;5051053;28;20048;-58
2020/12/29 06:25:17;;;;;;;22.85;2.53;;;8.20;99.90;;;;;;5053790;28;20052;-57
2020/12/29 06:28:27;;;;;;;10.25;2.03;;;8.10;99.90;;;;;;5056677;28;20039;-59
2020/12/29 06:31:32;;;;;;;10.68;2.65;;;7.90;99.90;;;;;;5054159;28;21690;-55
2020/12/29 06:34:40;;;;;;;14.07;2.17;;;7.80;99.90;;;;;;5052826;28;20072;-59
2020/12/29 06:38:11;;;;;;;14.27;1.98;;;7.60;99.90;;;;;;5055281;28;20491;-56
2020/12/29 06:41:20;;;;;;;19.08;3.22;;;7.60;99.90;;;;;;5057679;28;20044;-57
2020/12/29 06:44:24;;;;;;;19.67;6.50;;;7.50;99.90;;;;;;5060260;28;20040;-54
2020/12/29 06:47:28;;;;;;;10.65;3.22;;;7.40;99.90;;;;;;5055229;28;20039;-57
2020/12/29 06:50:33;;;;;;;22.67;4.50;;;7.40;99.90;;;;;;5055091;28;20048;-57
2020/12/29 06:53:43;;;;;;;22.70;3.45;;;7.40;99.90;;;;;;5053400;28;20036;-57
2020/12/29 06:56:59;;;;;;;20.73;4.20;;;7.40;99.90;;;;;;5056809;28;20036;-56
2020/12/29 07:00:10;;;;;;;25.63;3.05;;;7.50;99.90;;;;;;5056583;28;20043;-54
2020/12/29 07:03:32;;;;;;;26.67;3.97;;;7.60;99.90;;;;;;5051974;28;20051;-58
2020/12/29 07:06:37;;;;;;;31.92;5.20;;;8.00;99.90;;;;;;5058878;28;20051;-57
2020/12/29 07:09:45;;;;;;;21.52;4.00;;;8.10;99.90;;;;;;5052287;28;20044;-58
2020/12/29 07:12:50;;;;;;;26.35;4.25;;;8.10;99.90;;;;;;5055161;28;20047;-58
2020/12/29 07:15:55;;;;;;;14.70;3.92;;;7.90;99.90;;;;;;5061529;28;20040;-58
2020/12/29 07:19:15;;;;;;;18.30;4.03;;;7.80;99.90;;;;;;5053708;28;20982;-58
2020/12/29 07:22:20;;;;;;;21.08;3.35;;;7.60;99.90;;;;;;5059326;28;20852;-60
2020/12/29 07:25:25;;;;;;;26.42;3.13;;;7.60;99.90;;;;;;5061476;28;20112;-56
2020/12/29 07:28:30;;;;;;;20.15;3.78;;;7.60;99.90;;;;;;5054330;28;20043;-58
2020/12/29 07:31:38;;;;;;;26.45;3.38;;;7.70;99.90;;;;;;5055035;28;20043;-56
2020/12/29 07:34:44;;;;;;;19.45;3.30;;;7.80;99.90;;;;;;5056413;28;20044;-56
2020/12/29 07:37:50;;;;;;;27.13;4.00;;;7.80;99.90;;;;;;5060382;28;20043;-57
2020/12/29 07:40:54;;;;;;;17.80;3.13;;;7.90;99.90;;;;;;5067125;28;20047;-58
2020/12/29 07:43:59;;;;;;;20.58;2.83;;;8.00;99.90;;;;;;5068600;28;20039;-56
2020/12/29 07:47:03;;;;;;;20.15;2.63;;;8.20;99.90;;;;;;5057478;28;20081;-56
2020/12/29 07:50:07;;;;;;;16.38;1.98;;;8.50;99.90;;;;;;5054707;28;20522;-59
2020/12/29 07:53:12;;;;;;;15.25;2.53;;;8.60;99.90;;;;;;5063542;28;20040;-58
2020/12/29 07:56:17;;;;;;;17.90;2.53;;;8.70;99.90;;;;;;5057027;28;20044;-54
2020/12/29 07:59:24;;;;;;;15.98;2.50;;;8.90;99.90;;;;;;5059874;28;20407;-57
2020/12/29 08:02:28;;;;;;;12.88;2.25;;;8.80;99.90;;;;;;5061681;28;20532;-56
2020/12/29 08:05:34;;;;;;;16.27;2.20;;;8.80;99.90;;;;;;5065207;28;20039;-57
2020/12/29 08:08:40;;;;;;;14.88;2.20;;;9.00;99.90;;;;;;5054512;28;20406;-57
2020/12/29 08:11:45;;;;;;;20.27;3.10;;;9.10;99.90;;;;;;5066981;28;20036;-55
2020/12/29 08:14:50;;;;;;;11.40;2.40;;;9.10;99.90;;;;;;5053267;28;20040;-55
2020/12/29 08:18:02;;;;;;;19.73;2.38;;;9.20;99.90;;;;;;5055988;28;20430;-57
2020/12/29 08:21:08;;;;;;;19.10;3.05;;;9.20;99.90;;;;;;5062762;28;20040;-55
2020/12/29 08:24:13;;;;;;;20.55;2.55;;;9.30;99.90;;;;;;5055203;28;20052;-60
2020/12/29 08:27:17;;;;;;;14.38;2.72;;;9.30;99.90;;;;;;5055684;28;20048;-56
2020/12/29 08:30:24;;;;;;;16.58;2.88;;;9.30;99.90;;;;;;5049201;28;20506;-56
2020/12/29 08:33:30;;;;;;;12.65;2.15;;;9.30;99.90;;;;;;5062615;28;20655;-55
2020/12/29 08:36:36;;;;;;;13.23;2.38;;;9.20;99.90;;;;;;5049047;28;20108;-56
2020/12/29 08:40:14;;;;;;;17.88;4.38;;;9.30;99.90;;;;;;5061026;28;20055;-58
2020/12/29 08:43:19;;;;;;;16.90;4.00;;;9.30;99.90;;;;;;5068007;28;20047;-56
2020/12/29 08:46:24;;;;;;;11.75;2.22;;;9.20;99.90;;;;;;5049493;28;20051;-57
2020/12/29 08:49:30;;;;;;;13.68;2.95;;;9.20;99.90;;;;;;5057016;28;20123;-58
2020/12/29 08:52:34;;;;;;;13.65;2.08;;;8.80;99.90;;;;;;5064752;28;20574;-60
2020/12/29 08:55:40;;;;;;;18.27;2.75;;;8.70;99.90;;;;;;5056584;28;20036;-58
2020/12/29 08:58:48;;;;;;;11.95;2.17;;;8.60;99.90;;;;;;5067904;28;20402;-56
2020/12/29 09:01:56;;;;;;;23.52;2.60;;;8.40;99.90;;;;;;5050209;28;20052;-56
2020/12/29 09:05:00;;;;;;;16.42;2.38;;;8.30;99.90;;;;;;5068369;28;20051;-56
2020/12/29 09:08:05;;;;;;;9.32;2.72;;;8.20;99.90;;;;;;5068128;28;20553;-59
2020/12/29 09:11:12;;;;;;;21.23;4.03;;;8.20;99.90;;;;;;5057198;28;20429;-56
2020/12/29 09:14:24;;;;;;;22.10;4.97;;;8.40;99.90;;;;;;5055721;28;20047;-61
2020/12/29 09:17:33;;;;;;;23.70;3.17;;;8.70;99.90;;;;;;5062346;28;20047;-60
2020/12/29 09:20:38;;;;;;;12.20;1.90;;;8.80;99.90;;;;;;5055483;28;20407;-60
2020/12/29 09:23:42;;;;;;;25.67;3.80;;;8.90;99.90;;;;;;5059524;28;20047;-56
2020/12/29 09:26:49;;;;;;;14.10;2.72;;;8.80;99.90;;;;;;5054111;28;20059;-55
2020/12/29 09:29:55;;;;;;;20.38;2.63;;;9.00;99.90;;;;;;5061112;28;20043;-56
2020/12/29 09:32:59;;;;;;;27.45;4.25;;;9.10;99.90;;;;;;5051174;28;20044;-59
2020/12/29 09:36:07;;;;;;;22.48;2.53;;;9.30;99.90;;;;;;5051436;28;20052;-59
2020/12/29 09:39:11;;;;;;;11.70;1.90;;;9.80;99.90;;;;;;5053390;28;20055;-55
2020/12/29 09:42:16;;;;;;;11.15;2.40;;;10.60;99.90;;;;;;5061281;28;20055;-58
2020/12/29 09:45:23;;;;;;;14.43;2.60;;;10.20;99.90;;;;;;5059025;28;20044;-55
2020/12/29 09:48:27;;;;;;;18.00;4.25;;;10.00;99.90;;;;;;5066387;28;20055;-57
2020/12/29 09:51:32;;;;;;;18.85;2.42;;;9.70;99.90;;;;;;5059232;28;20036;-57
2020/12/29 09:54:36;;;;;;;12.77;2.63;;;9.50;99.90;;;;;;5051723;28;20506;-53
2020/12/29 09:57:41;;;;;;;11.63;2.35;;;9.40;99.90;;;;;;5059880;28;20048;-59
2020/12/29 10:00:47;;;;;;;20.25;2.40;;;9.30;99.90;;;;;;5069708;28;20847;-55
2020/12/29 10:03:51;;;;;;;14.80;2.88;;;9.20;99.90;;;;;;5063797;28;20044;-58
2020/12/29 10:06:55;;;;;;;10.75;1.98;;;9.20;99.90;;;;;;5065151;28;21349;-57
2020/12/29 10:10:00;;;;;;;16.05;2.20;;;9.20;99.90;;;;;;5060252;28;20040;-57
2020/12/29 10:13:05;;;;;;;13.27;2.25;;;9.10;99.90;;;;;;5057301;28;20043;-58
2020/12/29 10:16:09;;;;;;;19.30;3.50;;;8.90;99.90;;;;;;5055624;28;20048;-57
2020/12/29 10:19:13;;;;;;;14.52;2.72;;;8.80;99.90;;;;;;5063555;28;20044;-55
2020/12/29 10:22:17;;;;;;;13.10;2.78;;;8.70;99.90;;;;;;5063884;28;20048;-58
2020/12/29 10:25:21;;;;;;;19.20;1.98;;;8.60;99.90;;;;;;5058076;28;20052;-56
2020/12/29 10:28:26;;;;;;;22.65;3.60;;;8.50;99.90;;;;;;5055004;28;20060;-56
2020/12/29 10:31:29;;;;;;;13.50;2.08;;;8.40;99.90;;;;;;5051744;28;20048;-58
2020/12/29 10:34:33;;;;;;;14.63;2.85;;;8.20;99.90;;;;;;5050577;28;20036;-59
2020/12/29 10:37:38;;;;;;;16.83;3.35;;;8.10;99.90;;;;;;5050821;28;20427;-58
2020/12/29 10:40:42;;;;;;;12.73;1.98;;;8.10;99.90;;;;;;5058410;28;20043;-59
2020/12/29 10:43:47;;;;;;;14.18;2.85;;;8.00;99.90;;;;;;5056974;28;20047;-59
2020/12/29 10:46:51;;;;;;;8.88;2.30;;;8.00;99.90;;;;;;5054896;28;20055;-57
2020/12/29 10:49:56;;;;;;;5.30;1.60;;;8.00;99.90;;;;;;5056499;28;20417;-57
2020/12/29 10:53:00;;;;;;;12.02;1.60;;;7.90;99.90;;;;;;5064062;28;20041;-58
2020/12/29 10:56:04;;;;;;;17.02;2.65;;;8.00;99.90;;;;;;5055177;28;20040;-58
2020/12/29 10:59:08;;;;;;;7.32;1.40;;;8.00;99.90;;;;;;5058322;28;20668;-58
2020/12/29 11:02:13;;;;;;;12.23;3.55;;;8.10;99.90;;;;;;5067213;28;20048;-59
2020/12/29 11:05:17;;;;;;;11.57;1.65;;;8.10;99.90;;;;;;5064728;28;20031;-57
2020/12/29 11:08:21;;;;;;;8.73;1.92;;;8.20;99.90;;;;;;5054705;28;20044;-58
2020/12/29 11:11:27;;;;;;;10.27;2.70;;;8.30;99.90;;;;;;5063659;28;20037;-59
2020/12/29 11:14:33;;;;;;;5.97;2.28;;;8.20;99.90;;;;;;5056553;28;20399;-59
2020/12/29 11:17:37;;;;;;;11.48;1.85;;;8.20;99.90;;;;;;5068763;28;20037;-59
2020/12/29 11:20:41;;;;;;;8.43;1.85;;;8.20;99.90;;;;;;5057307;28;20055;-57
2020/12/29 11:23:47;;;;;;;12.50;1.92;;;8.30;99.90;;;;;;5061664;28;20037;-57
2020/12/29 11:26:51;;;;;;;11.95;2.05;;;8.40;99.90;;;;;;5061614;28;20047;-61
2020/12/29 11:29:56;;;;;;;7.85;2.00;;;8.40;99.90;;;;;;5062728;28;20039;-57
2020/12/29 11:33:00;;;;;;;8.20;1.90;;;8.40;99.90;;;;;;5051382;28;20029;-58
2020/12/29 11:36:05;;;;;;;9.65;2.05;;;8.40;99.90;;;;;;5053150;28;20037;-59
2020/12/29 11:39:10;;;;;;;10.60;1.92;;;8.30;99.90;;;;;;5055438;28;20041;-60
2020/12/29 11:42:14;;;;;;;9.73;2.10;;;8.40;99.90;;;;;;5053621;28;20120;-60
2020/12/29 11:45:19;;;;;;;10.48;2.70;;;8.40;99.90;;;;;;5051433;28;20037;-60
2020/12/29 11:48:23;;;;;;;14.38;2.95;;;8.30;99.90;;;;;;5055856;28;20048;-55
2020/12/29 11:51:27;;;;;;;11.45;2.13;;;8.30;99.90;;;;;;5056869;28;20039;-58
2020/12/29 11:54:32;;;;;;;6.07;2.10;;;8.30;99.90;;;;;;5054042;28;20039;-59
2020/12/29 11:57:36;;;;;;;12.15;2.28;;;8.30;99.90;;;;;;5056567;28;20040;-59
2020/12/29 12:00:41;;;;;;;11.50;1.77;;;8.30;99.90;;;;;;5052871;28;20047;-60
2020/12/29 12:03:46;;;;;;;12.85;2.80;;;8.30;99.90;;;;;;5048012;28;20044;-59
2020/12/29 12:06:52;;;;;;;8.73;2.30;;;8.40;99.90;;;;;;5049594;28;20039;-57
2020/12/29 12:09:57;;;;;;;7.13;2.05;;;8.40;99.90;;;;;;5048347;28;20041;-58
2020/12/29 12:13:01;;;;;;;24.67;10.13;;;8.40;99.90;;;;;;5066207;28;20040;-58
2020/12/29 12:16:05;;;;;;;9.85;2.20;;;8.40;99.90;;;;;;5056986;28;20055;-58
2020/12/29 12:19:10;;;;;;;18.30;7.72;;;8.30;99.90;;;;;;5061121;28;20048;-58
2020/12/29 12:22:14;;;;;;;9.60;4.57;;;8.40;99.90;;;;;;5060458;28;20058;-59
2020/12/29 12:25:18;;;;;;;15.60;6.05;;;8.40;99.90;;;;;;5054408;28;20037;-60
2020/12/29 12:28:23;;;;;;;14.15;2.90;;;8.40;99.90;;;;;;5065211;28;20095;-58
2020/12/29 12:31:27;;;;;;;9.60;2.10;;;8.50;99.90;;;;;;5054453;28;20048;-55
2020/12/29 12:34:31;;;;;;;18.10;9.45;;;8.40;99.90;;;;;;5064283;28;20028;-58
2020/12/29 12:37:36;;;;;;;70.32;40.35;;;8.40;99.90;;;;;;5052085;28;20060;-59
2020/12/29 12:40:40;;;;;;;15.55;7.85;;;8.30;99.90;;;;;;5067029;28;20040;-59
2020/12/29 12:43:45;;;;;;;9.10;2.78;;;8.30;99.90;;;;;;5047641;28;20044;-60
2020/12/29 12:46:49;;;;;;;11.30;3.83;;;8.30;99.90;;;;;;5048630;28;20041;-55
2020/12/29 12:49:54;;;;;;;9.75;2.20;;;8.30;99.90;;;;;;5048242;28;20048;-59
2020/12/29 12:52:58;;;;;;;12.80;2.25;;;8.20;99.90;;;;;;5048232;28;20487;-56
2020/12/29 12:56:01;;;;;;;11.70;2.58;;;8.10;99.90;;;;;;5048394;28;20044;-58
2020/12/29 12:59:06;;;;;;;13.48;3.65;;;8.10;99.90;;;;;;5053342;28;20044;-59
2020/12/29 13:02:11;;;;;;;16.65;4.30;;;8.00;99.90;;;;;;5067418;28;20055;-59
2020/12/29 13:05:17;;;;;;;14.40;4.30;;;7.90;99.90;;;;;;5056049;28;20036;-57
2020/12/29 13:08:22;;;;;;;19.48;8.77;;;7.80;99.90;;;;;;5068048;28;20604;-59
2020/12/29 13:11:27;;;;;;;19.48;5.85;;;7.80;99.90;;;;;;5055685;28;20036;-57
2020/12/29 13:14:32;;;;;;;16.27;5.13;;;7.80;99.90;;;;;;5051558;28;20040;-59
2020/12/29 13:17:37;;;;;;;15.02;5.22;;;7.90;99.90;;;;;;5063906;28;20047;-58
2020/12/29 13:20:43;;;;;;;33.88;15.20;;;7.90;99.90;;;;;;5051456;28;20048;-58
2020/12/29 13:23:47;;;;;;;14.35;4.13;;;7.80;99.90;;;;;;5057613;28;20043;-58
2020/12/29 13:26:52;;;;;;;11.82;3.20;;;7.80;99.90;;;;;;5054734;28;20047;-58
2020/12/29 13:29:57;;;;;;;16.77;5.40;;;7.80;99.90;;;;;;5066906;28;20043;-59
2020/12/29 13:33:01;;;;;;;14.98;2.75;;;7.70;99.90;;;;;;5055196;28;20390;-59
2020/12/29 13:36:09;;;;;;;7.18;2.78;;;7.70;99.90;;;;;;5050773;28;20387;-58
2020/12/29 13:39:13;;;;;;;16.35;2.63;;;7.60;99.90;;;;;;5060897;28;20044;-58
2020/12/29 13:42:17;;;;;;;9.45;2.80;;;7.50;99.90;;;;;;5064522;28;20051;-57
2020/12/29 13:45:21;;;;;;;10.38;3.47;;;7.50;99.90;;;;;;5058295;28;20052;-58
2020/12/29 13:48:26;;;;;;;16.15;3.78;;;7.50;99.90;;;;;;5060240;28;20051;-56
2020/12/29 13:51:30;;;;;;;14.60;3.88;;;7.40;99.90;;;;;;5058437;28;20036;-59
2020/12/29 13:54:34;;;;;;;18.70;4.32;;;7.40;99.90;;;;;;5069618;28;20044;-60
2020/12/29 13:57:38;;;;;;;8.02;2.85;;;7.30;99.90;;;;;;5053566;28;20048;-57
2020/12/29 14:00:43;;;;;;;11.98;3.05;;;7.20;99.90;;;;;;5060627;28;20036;-58
2020/12/29 14:03:48;;;;;;;13.20;2.70;;;7.20;99.90;;;;;;5069716;28;20059;-59
2020/12/29 14:06:53;;;;;;;16.77;4.80;;;7.20;99.90;;;;;;5068058;28;20047;-56
2020/12/29 14:09:58;;;;;;;18.25;4.82;;;7.10;99.90;;;;;;5055997;28;20043;-59
2020/12/29 14:13:02;;;;;;;5.82;2.30;;;7.10;99.90;;;;;;5053396;28;20044;-59
2020/12/29 14:16:06;;;;;;;8.95;4.80;;;7.00;99.90;;;;;;5053312;28;20037;-59
2020/12/29 14:19:11;;;;;;;11.35;5.28;;;6.90;99.90;;;;;;5052994;28;20029;-58
2020/12/29 14:22:15;;;;;;;9.68;5.30;;;6.90;99.90;;;;;;5058974;28;20039;-58
2020/12/29 14:25:20;;;;;;;14.65;8.25;;;6.80;99.90;;;;;;5064216;28;20036;-58
2020/12/29 14:28:24;;;;;;;3.22;1.48;;;6.90;99.90;;;;;;5057008;28;20044;-60
2020/12/29 14:31:29;;;;;;;4.75;2.85;;;6.90;99.90;;;;;;5052233;28;20048;-58
2020/12/29 14:34:33;;;;;;;12.40;3.75;;;6.90;99.90;;;;;;5051756;28;20080;-60
2020/12/29 14:37:38;;;;;;;2.22;0.98;;;7.00;99.90;;;;;;5051649;28;20044;-56
2020/12/29 14:40:42;;;;;;;6.00;1.60;;;6.90;99.90;;;;;;5053694;28;20036;-60
2020/12/29 14:43:48;;;;;;;4.95;2.20;;;6.80;99.90;;;;;;5053388;28;20037;-56
2020/12/29 14:46:53;;;;;;;2.97;1.27;;;6.80;99.90;;;;;;5053993;28;20379;-59
2020/12/29 14:49:57;;;;;;;9.23;4.20;;;6.90;99.90;;;;;;5050299;28;20037;-58
2020/12/29 14:53:01;;;;;;;41.75;23.35;;;6.90;99.90;;;;;;5058162;28;20045;-57
2020/12/29 14:56:05;;;;;;;13.50;7.00;;;7.00;99.90;;;;;;5053461;28;20394;-56
2020/12/29 14:59:10;;;;;;;13.23;7.43;;;7.00;99.90;;;;;;5049975;28;20058;-57
2020/12/29 15:02:14;;;;;;;1.52;1.05;;;7.10;99.90;;;;;;5052804;28;20067;-57
2020/12/29 15:05:19;;;;;;;8.77;5.43;;;7.10;99.90;;;;;;5049120;28;20045;-59
2020/12/29 15:08:23;;;;;;;11.10;6.93;;;7.10;99.90;;;;;;5058012;28;20036;-58
2020/12/29 15:11:28;;;;;;;5.88;2.30;;;7.10;99.90;;;;;;5052780;28;20056;-60
2020/12/29 15:14:33;;;;;;;9.20;5.15;;;7.20;99.90;;;;;;5049797;28;20044;-60
2020/12/29 15:17:37;;;;;;;4.43;1.75;;;7.20;99.90;;;;;;5055277;28;20033;-56
2020/12/29 15:20:41;;;;;;;2.42;0.90;;;7.30;99.90;;;;;;5057646;28;20040;-59
2020/12/29 15:23:46;;;;;;;5.85;1.05;;;7.30;99.90;;;;;;5059962;28;20040;-58
2020/12/29 15:26:50;;;;;;;12.27;6.97;;;7.30;99.90;;;;;;5050245;28;20060;-57
2020/12/29 15:29:54;;;;;;;8.60;4.75;;;7.30;99.90;;;;;;5048982;28;20051;-58
2020/12/29 15:32:58;;;;;;;8.55;2.40;;;7.50;99.90;;;;;;5055629;28;20036;-56
2020/12/29 15:50:50;;;;;;;5.32;1.50;;;7.80;99.90;;;;;;5007455;28;20048;-58
2020/12/29 15:53:55;;;;;;;8.15;2.50;;;7.90;99.90;;;;;;5049773;28;20045;-56
2020/12/29 15:56:59;;;;;;;12.43;4.93;;;7.90;99.90;;;;;;5057721;28;20875;-58
2020/12/29 16:00:04;;;;;;;8.50;3.72;;;8.00;99.90;;;;;;5049635;28;20510;-54
2020/12/29 16:03:13;;;;;;;8.60;1.95;;;8.10;99.90;;;;;;5051402;28;20392;-56
2020/12/29 16:06:18;;;;;;;9.40;2.92;;;8.30;99.90;;;;;;5051620;28;20384;-60
2020/12/29 16:09:22;;;;;;;7.38;2.30;;;8.30;99.90;;;;;;5059059;28;20041;-58
2020/12/29 16:12:26;;;;;;;4.00;1.15;;;8.30;99.90;;;;;;5052917;28;20040;-58
2020/12/29 16:15:31;;;;;;;9.98;3.35;;;8.40;99.90;;;;;;5049689;28;20033;-58
2020/12/29 16:18:36;;;;;;;3.15;1.38;;;8.40;99.90;;;;;;5055028;28;20032;-57
2020/12/29 16:21:40;;;;;;;5.65;1.73;;;8.40;99.90;;;;;;5067034;28;20412;-58